sensor_id;sensor_type;location;lat;lon;timestamp;P1;durP1;ratioP1;P2;durP2;ratioP2
67248;SDS011;63247;54.300;18.592;2023-03-14T00:00:11;17.10;;;8.27;;
67248;SDS011;63247;54.300;18.592;2023-03-14T00:02:39;16.20;;;8.40;;
67248;SDS011;63247;54.300;18.592;2023-03-14T00:05:05;16.73;;;8.33;;
67248;SDS011;63247;54.300;18.592;2023-03-14T00:07:34;18.55;;;8.50;;
67248;SDS011;63247;54.300;18.592;2023-03-14T00:10:05;19.52;;;8.70;;
67248;SDS011;63247;54.300;18.592;2023-03-14T00:12:34;17.10;;;8.25;;
67248;SDS011;63247;54.300;18.592;2023-03-14T00:14:59;18.63;;;9.10;;
67248;SDS011;63247;54.300;18.592;2023-03-14T00:17:26;15.98;;;7.97;;
67248;SDS011;63247;54.300;18.592;2023-03-14T00:19:52;18.02;;;8.02;;
67248;SDS011;63247;54.300;18.592;2023-03-14T00:22:19;19.83;;;9.07;;
67248;SDS011;63247;54.300;18.592;2023-03-14T00:24:45;18.17;;;8.32;;
67248;SDS011;63247;54.300;18.592;2023-03-14T00:27:10;20.00;;;9.20;;
67248;SDS011;63247;54.300;18.592;2023-03-14T00:29:36;20.57;;;10.10;;
67248;SDS011;63247;54.300;18.592;2023-03-14T00:32:01;18.70;;;9.43;;
67248;SDS011;63247;54.300;18.592;2023-03-14T00:34:30;18.48;;;9.88;;
67248;SDS011;63247;54.300;18.592;2023-03-14T00:36:56;18.35;;;8.75;;
67248;SDS011;63247;54.300;18.592;2023-03-14T00:39:22;18.03;;;7.63;;
67248;SDS011;63247;54.300;18.592;2023-03-14T00:41:48;20.48;;;8.70;;
67248;SDS011;63247;54.300;18.592;2023-03-14T00:44:13;16.73;;;8.63;;
67248;SDS011;63247;54.300;18.592;2023-03-14T00:46:38;18.83;;;8.73;;
67248;SDS011;63247;54.300;18.592;2023-03-14T00:49:04;19.27;;;8.73;;
67248;SDS011;63247;54.300;18.592;2023-03-14T00:51:29;19.57;;;8.30;;
67248;SDS011;63247;54.300;18.592;2023-03-14T00:53:55;19.65;;;9.52;;
67248;SDS011;63247;54.300;18.592;2023-03-14T00:56:20;19.35;;;9.32;;
67248;SDS011;63247;54.300;18.592;2023-03-14T00:58:46;17.63;;;9.27;;
67248;SDS011;63247;54.300;18.592;2023-03-14T01:01:15;16.70;;;8.37;;
67248;SDS011;63247;54.300;18.592;2023-03-14T01:03:43;18.73;;;8.70;;
67248;SDS011;63247;54.300;18.592;2023-03-14T01:06:13;17.48;;;7.55;;
67248;SDS011;63247;54.300;18.592;2023-03-14T01:08:41;16.50;;;8.20;;
67248;SDS011;63247;54.300;18.592;2023-03-14T01:11:08;16.73;;;7.45;;
67248;SDS011;63247;54.300;18.592;2023-03-14T01:13:35;16.67;;;7.40;;
67248;SDS011;63247;54.300;18.592;2023-03-14T01:16:04;17.98;;;8.27;;
67248;SDS011;63247;54.300;18.592;2023-03-14T01:18:32;14.52;;;7.38;;
67248;SDS011;63247;54.300;18.592;2023-03-14T01:20:58;14.60;;;7.43;;
67248;SDS011;63247;54.300;18.592;2023-03-14T01:23:24;17.35;;;8.35;;
67248;SDS011;63247;54.300;18.592;2023-03-14T01:25:49;15.17;;;7.10;;
67248;SDS011;63247;54.300;18.592;2023-03-14T01:28:15;16.10;;;7.63;;
67248;SDS011;63247;54.300;18.592;2023-03-14T01:30:41;14.55;;;6.88;;
67248;SDS011;63247;54.300;18.592;2023-03-14T01:33:06;13.80;;;7.43;;
67248;SDS011;63247;54.300;18.592;2023-03-14T01:35:32;13.93;;;7.87;;
67248;SDS011;63247;54.300;18.592;2023-03-14T01:37:57;15.90;;;7.20;;
67248;SDS011;63247;54.300;18.592;2023-03-14T01:40:22;14.43;;;7.23;;
67248;SDS011;63247;54.300;18.592;2023-03-14T01:42:57;14.63;;;7.13;;
67248;SDS011;63247;54.300;18.592;2023-03-14T01:48:17;17.10;;;7.95;;
67248;SDS011;63247;54.300;18.592;2023-03-14T01:50:43;16.20;;;7.22;;
67248;SDS011;63247;54.300;18.592;2023-03-14T01:53:08;15.70;;;7.97;;
67248;SDS011;63247;54.300;18.592;2023-03-14T01:55:35;16.53;;;7.03;;
67248;SDS011;63247;54.300;18.592;2023-03-14T01:58:03;17.83;;;8.30;;
67248;SDS011;63247;54.300;18.592;2023-03-14T02:00:30;16.67;;;7.15;;
67248;SDS011;63247;54.300;18.592;2023-03-14T02:02:58;14.63;;;7.80;;
67248;SDS011;63247;54.300;18.592;2023-03-14T02:05:28;12.23;;;6.20;;
67248;SDS011;63247;54.300;18.592;2023-03-14T02:07:58;13.93;;;6.72;;
67248;SDS011;63247;54.300;18.592;2023-03-14T02:10:26;14.48;;;6.93;;
67248;SDS011;63247;54.300;18.592;2023-03-14T02:12:54;16.10;;;7.65;;
67248;SDS011;63247;54.300;18.592;2023-03-14T02:15:22;14.93;;;6.63;;
67248;SDS011;63247;54.300;18.592;2023-03-14T02:17:48;13.60;;;6.10;;
67248;SDS011;63247;54.300;18.592;2023-03-14T02:20:24;14.35;;;7.10;;
67248;SDS011;63247;54.300;18.592;2023-03-14T02:22:58;13.80;;;6.50;;
67248;SDS011;63247;54.300;18.592;2023-03-14T02:25:34;15.95;;;7.10;;
67248;SDS011;63247;54.300;18.592;2023-03-14T02:28:13;16.17;;;7.65;;
67248;SDS011;63247;54.300;18.592;2023-03-14T02:30:39;16.23;;;7.40;;
67248;SDS011;63247;54.300;18.592;2023-03-14T02:35:37;15.27;;;7.23;;
67248;SDS011;63247;54.300;18.592;2023-03-14T02:38:10;18.27;;;7.18;;
67248;SDS011;63247;54.300;18.592;2023-03-14T02:40:47;15.60;;;6.93;;
67248;SDS011;63247;54.300;18.592;2023-03-14T02:43:13;15.60;;;6.70;;
67248;SDS011;63247;54.300;18.592;2023-03-14T02:48:11;12.52;;;5.93;;
67248;SDS011;63247;54.300;18.592;2023-03-14T02:50:43;12.77;;;6.33;;
67248;SDS011;63247;54.300;18.592;2023-03-14T02:53:12;13.13;;;5.88;;
67248;SDS011;63247;54.300;18.592;2023-03-14T02:55:39;13.02;;;6.18;;
67248;SDS011;63247;54.300;18.592;2023-03-14T02:58:04;12.67;;;5.33;;
67248;SDS011;63247;54.300;18.592;2023-03-14T03:00:30;13.35;;;6.13;;
67248;SDS011;63247;54.300;18.592;2023-03-14T03:02:55;14.00;;;5.45;;
67248;SDS011;63247;54.300;18.592;2023-03-14T03:05:21;15.07;;;5.70;;
67248;SDS011;63247;54.300;18.592;2023-03-14T03:07:46;13.17;;;5.80;;
67248;SDS011;63247;54.300;18.592;2023-03-14T03:10:12;13.70;;;5.63;;
67248;SDS011;63247;54.300;18.592;2023-03-14T03:12:37;12.32;;;5.90;;
67248;SDS011;63247;54.300;18.592;2023-03-14T03:15:03;12.20;;;5.30;;
67248;SDS011;63247;54.300;18.592;2023-03-14T03:17:28;10.93;;;5.30;;
67248;SDS011;63247;54.300;18.592;2023-03-14T03:19:54;12.75;;;5.80;;
67248;SDS011;63247;54.300;18.592;2023-03-14T03:22:19;11.47;;;5.57;;
67248;SDS011;63247;54.300;18.592;2023-03-14T03:24:45;12.20;;;5.53;;
67248;SDS011;63247;54.300;18.592;2023-03-14T03:27:10;10.93;;;5.40;;
67248;SDS011;63247;54.300;18.592;2023-03-14T03:29:35;12.20;;;5.22;;
67248;SDS011;63247;54.300;18.592;2023-03-14T03:32:01;12.75;;;5.00;;
67248;SDS011;63247;54.300;18.592;2023-03-14T03:34:27;10.87;;;5.30;;
67248;SDS011;63247;54.300;18.592;2023-03-14T03:36:55;11.40;;;5.18;;
67248;SDS011;63247;54.300;18.592;2023-03-14T03:39:21;10.80;;;5.37;;
67248;SDS011;63247;54.300;18.592;2023-03-14T03:41:47;11.07;;;4.97;;
67248;SDS011;63247;54.300;18.592;2023-03-14T03:44:12;11.20;;;4.70;;
67248;SDS011;63247;54.300;18.592;2023-03-14T03:46:38;9.90;;;4.80;;
67248;SDS011;63247;54.300;18.592;2023-03-14T03:49:03;11.03;;;4.50;;
67248;SDS011;63247;54.300;18.592;2023-03-14T03:51:29;10.57;;;4.80;;
67248;SDS011;63247;54.300;18.592;2023-03-14T03:53:55;9.82;;;4.45;;
67248;SDS011;63247;54.300;18.592;2023-03-14T03:56:21;11.13;;;4.67;;
67248;SDS011;63247;54.300;18.592;2023-03-14T03:58:46;8.95;;;4.10;;
67248;SDS011;63247;54.300;18.592;2023-03-14T04:01:12;10.90;;;4.67;;
67248;SDS011;63247;54.300;18.592;2023-03-14T04:03:37;10.87;;;4.60;;
67248;SDS011;63247;54.300;18.592;2023-03-14T04:06:09;10.20;;;4.78;;
67248;SDS011;63247;54.300;18.592;2023-03-14T04:08:36;9.75;;;4.15;;
67248;SDS011;63247;54.300;18.592;2023-03-14T04:11:01;9.07;;;3.93;;
67248;SDS011;63247;54.300;18.592;2023-03-14T04:13:28;8.57;;;4.00;;
67248;SDS011;63247;54.300;18.592;2023-03-14T04:15:54;8.77;;;4.10;;
67248;SDS011;63247;54.300;18.592;2023-03-14T04:18:20;8.32;;;3.90;;
67248;SDS011;63247;54.300;18.592;2023-03-14T04:20:50;8.65;;;4.20;;
67248;SDS011;63247;54.300;18.592;2023-03-14T04:23:16;9.02;;;3.95;;
67248;SDS011;63247;54.300;18.592;2023-03-14T04:25:42;8.33;;;3.90;;
67248;SDS011;63247;54.300;18.592;2023-03-14T04:28:07;9.47;;;3.73;;
67248;SDS011;63247;54.300;18.592;2023-03-14T04:30:33;10.53;;;3.60;;
67248;SDS011;63247;54.300;18.592;2023-03-14T04:32:58;8.90;;;3.95;;
67248;SDS011;63247;54.300;18.592;2023-03-14T04:35:24;11.63;;;4.10;;
67248;SDS011;63247;54.300;18.592;2023-03-14T04:37:49;7.50;;;3.60;;
67248;SDS011;63247;54.300;18.592;2023-03-14T04:40:17;6.65;;;3.35;;
67248;SDS011;63247;54.300;18.592;2023-03-14T04:42:43;6.88;;;3.60;;
67248;SDS011;63247;54.300;18.592;2023-03-14T04:45:09;7.55;;;3.03;;
67248;SDS011;63247;54.300;18.592;2023-03-14T04:47:35;9.87;;;3.87;;
67248;SDS011;63247;54.300;18.592;2023-03-14T04:50:00;9.68;;;3.80;;
67248;SDS011;63247;54.300;18.592;2023-03-14T04:52:26;8.07;;;4.17;;
67248;SDS011;63247;54.300;18.592;2023-03-14T04:54:52;9.00;;;3.90;;
67248;SDS011;63247;54.300;18.592;2023-03-14T04:57:17;9.40;;;3.30;;
67248;SDS011;63247;54.300;18.592;2023-03-14T04:59:43;6.37;;;3.30;;
67248;SDS011;63247;54.300;18.592;2023-03-14T05:02:08;10.02;;;3.60;;
67248;SDS011;63247;54.300;18.592;2023-03-14T05:04:33;7.77;;;3.27;;
67248;SDS011;63247;54.300;18.592;2023-03-14T05:06:59;8.10;;;3.37;;
67248;SDS011;63247;54.300;18.592;2023-03-14T05:09:25;7.60;;;3.22;;
67248;SDS011;63247;54.300;18.592;2023-03-14T05:11:51;8.50;;;3.57;;
67248;SDS011;63247;54.300;18.592;2023-03-14T05:14:16;7.60;;;3.47;;
67248;SDS011;63247;54.300;18.592;2023-03-14T05:16:42;9.18;;;3.55;;
67248;SDS011;63247;54.300;18.592;2023-03-14T05:19:07;7.43;;;3.50;;
67248;SDS011;63247;54.300;18.592;2023-03-14T05:21:33;8.20;;;3.40;;
67248;SDS011;63247;54.300;18.592;2023-03-14T05:23:58;7.35;;;3.40;;
67248;SDS011;63247;54.300;18.592;2023-03-14T05:26:24;8.63;;;3.23;;
67248;SDS011;63247;54.300;18.592;2023-03-14T05:28:49;8.93;;;3.40;;
67248;SDS011;63247;54.300;18.592;2023-03-14T05:31:15;7.00;;;3.23;;
67248;SDS011;63247;54.300;18.592;2023-03-14T05:33:40;9.77;;;3.58;;
67248;SDS011;63247;54.300;18.592;2023-03-14T05:36:06;7.23;;;3.30;;
67248;SDS011;63247;54.300;18.592;2023-03-14T05:38:32;8.95;;;3.50;;
67248;SDS011;63247;54.300;18.592;2023-03-14T05:40:57;6.63;;;3.10;;
67248;SDS011;63247;54.300;18.592;2023-03-14T05:43:23;7.57;;;3.03;;
67248;SDS011;63247;54.300;18.592;2023-03-14T05:45:48;7.05;;;3.60;;
67248;SDS011;63247;54.300;18.592;2023-03-14T05:48:14;6.43;;;3.30;;
67248;SDS011;63247;54.300;18.592;2023-03-14T05:50:39;7.67;;;3.23;;
67248;SDS011;63247;54.300;18.592;2023-03-14T05:53:04;7.93;;;3.40;;
67248;SDS011;63247;54.300;18.592;2023-03-14T05:55:30;8.87;;;3.50;;
67248;SDS011;63247;54.300;18.592;2023-03-14T05:57:55;8.30;;;3.53;;
67248;SDS011;63247;54.300;18.592;2023-03-14T06:00:21;11.53;;;3.27;;
67248;SDS011;63247;54.300;18.592;2023-03-14T06:02:47;9.60;;;3.42;;
67248;SDS011;63247;54.300;18.592;2023-03-14T06:05:12;9.53;;;3.37;;
67248;SDS011;63247;54.300;18.592;2023-03-14T06:07:38;8.40;;;3.47;;
67248;SDS011;63247;54.300;18.592;2023-03-14T06:10:03;7.50;;;3.73;;
67248;SDS011;63247;54.300;18.592;2023-03-14T06:12:29;10.18;;;3.42;;
67248;SDS011;63247;54.300;18.592;2023-03-14T06:14:55;9.53;;;3.30;;
67248;SDS011;63247;54.300;18.592;2023-03-14T06:17:20;11.23;;;3.43;;
67248;SDS011;63247;54.300;18.592;2023-03-14T06:19:46;8.48;;;3.08;;
67248;SDS011;63247;54.300;18.592;2023-03-14T06:22:11;9.43;;;3.50;;
67248;SDS011;63247;54.300;18.592;2023-03-14T06:24:36;8.33;;;3.73;;
67248;SDS011;63247;54.300;18.592;2023-03-14T06:27:02;8.60;;;3.50;;
67248;SDS011;63247;54.300;18.592;2023-03-14T06:29:28;7.53;;;3.20;;
67248;SDS011;63247;54.300;18.592;2023-03-14T06:31:54;8.73;;;3.75;;
67248;SDS011;63247;54.300;18.592;2023-03-14T06:34:19;8.87;;;3.63;;
67248;SDS011;63247;54.300;18.592;2023-03-14T06:36:45;8.47;;;3.60;;
67248;SDS011;63247;54.300;18.592;2023-03-14T06:39:10;17.75;;;3.80;;
67248;SDS011;63247;54.300;18.592;2023-03-14T06:41:36;10.10;;;3.90;;
67248;SDS011;63247;54.300;18.592;2023-03-14T06:44:01;10.30;;;3.40;;
67248;SDS011;63247;54.300;18.592;2023-03-14T06:46:27;7.83;;;3.43;;
67248;SDS011;63247;54.300;18.592;2023-03-14T06:48:52;9.05;;;3.30;;
67248;SDS011;63247;54.300;18.592;2023-03-14T06:51:18;7.80;;;3.33;;
67248;SDS011;63247;54.300;18.592;2023-03-14T06:53:44;8.77;;;3.70;;
67248;SDS011;63247;54.300;18.592;2023-03-14T06:56:09;9.02;;;3.10;;
67248;SDS011;63247;54.300;18.592;2023-03-14T06:58:35;12.43;;;3.40;;
67248;SDS011;63247;54.300;18.592;2023-03-14T07:01:00;9.30;;;3.33;;
67248;SDS011;63247;54.300;18.592;2023-03-14T07:03:26;8.02;;;3.50;;
67248;SDS011;63247;54.300;18.592;2023-03-14T07:05:51;7.30;;;2.63;;
67248;SDS011;63247;54.300;18.592;2023-03-14T07:08:17;6.75;;;3.10;;
67248;SDS011;63247;54.300;18.592;2023-03-14T07:10:43;8.40;;;3.30;;
67248;SDS011;63247;54.300;18.592;2023-03-14T07:13:08;8.80;;;3.80;;
67248;SDS011;63247;54.300;18.592;2023-03-14T07:15:34;7.90;;;3.23;;
67248;SDS011;63247;54.300;18.592;2023-03-14T07:17:59;8.48;;;3.35;;
67248;SDS011;63247;54.300;18.592;2023-03-14T07:20:25;7.13;;;3.05;;
67248;SDS011;63247;54.300;18.592;2023-03-14T07:22:50;8.87;;;3.23;;
67248;SDS011;63247;54.300;18.592;2023-03-14T07:25:16;6.77;;;2.83;;
67248;SDS011;63247;54.300;18.592;2023-03-14T07:27:43;12.48;;;4.72;;
67248;SDS011;63247;54.300;18.592;2023-03-14T07:30:10;9.63;;;4.05;;
67248;SDS011;63247;54.300;18.592;2023-03-14T07:32:36;10.85;;;4.15;;
67248;SDS011;63247;54.300;18.592;2023-03-14T07:35:01;9.73;;;3.90;;
67248;SDS011;63247;54.300;18.592;2023-03-14T07:37:27;10.50;;;4.10;;
67248;SDS011;63247;54.300;18.592;2023-03-14T07:39:53;11.03;;;4.33;;
67248;SDS011;63247;54.300;18.592;2023-03-14T07:42:18;11.07;;;4.60;;
67248;SDS011;63247;54.300;18.592;2023-03-14T07:44:44;12.13;;;5.50;;
67248;SDS011;63247;54.300;18.592;2023-03-14T07:47:09;13.27;;;4.85;;
67248;SDS011;63247;54.300;18.592;2023-03-14T07:49:35;15.20;;;6.90;;
67248;SDS011;63247;54.300;18.592;2023-03-14T07:52:00;8.90;;;3.37;;
67248;SDS011;63247;54.300;18.592;2023-03-14T07:54:26;8.20;;;4.00;;
67248;SDS011;63247;54.300;18.592;2023-03-14T07:56:51;10.10;;;4.13;;
67248;SDS011;63247;54.300;18.592;2023-03-14T07:59:17;8.57;;;4.23;;
67248;SDS011;63247;54.300;18.592;2023-03-14T08:01:43;10.10;;;5.40;;
67248;SDS011;63247;54.300;18.592;2023-03-14T08:04:09;12.30;;;5.00;;
67248;SDS011;63247;54.300;18.592;2023-03-14T08:06:35;7.78;;;3.90;;
67248;SDS011;63247;54.300;18.592;2023-03-14T08:09:00;8.55;;;3.83;;
67248;SDS011;63247;54.300;18.592;2023-03-14T08:11:26;7.20;;;3.27;;
67248;SDS011;63247;54.300;18.592;2023-03-14T08:13:52;6.97;;;3.35;;
67248;SDS011;63247;54.300;18.592;2023-03-14T08:16:18;8.23;;;3.87;;
67248;SDS011;63247;54.300;18.592;2023-03-14T08:18:44;7.13;;;3.80;;
67248;SDS011;63247;54.300;18.592;2023-03-14T08:21:10;7.87;;;4.00;;
67248;SDS011;63247;54.300;18.592;2023-03-14T08:23:36;8.93;;;4.43;;
67248;SDS011;63247;54.300;18.592;2023-03-14T08:26:01;7.13;;;3.70;;
67248;SDS011;63247;54.300;18.592;2023-03-14T08:28:27;7.67;;;3.80;;
67248;SDS011;63247;54.300;18.592;2023-03-14T08:30:56;7.57;;;3.75;;
67248;SDS011;63247;54.300;18.592;2023-03-14T08:33:22;5.95;;;3.25;;
67248;SDS011;63247;54.300;18.592;2023-03-14T08:35:48;8.02;;;4.00;;
67248;SDS011;63247;54.300;18.592;2023-03-14T08:38:17;8.50;;;4.50;;
67248;SDS011;63247;54.300;18.592;2023-03-14T08:40:42;8.97;;;4.07;;
67248;SDS011;63247;54.300;18.592;2023-03-14T08:43:08;8.33;;;4.00;;
67248;SDS011;63247;54.300;18.592;2023-03-14T08:45:33;8.77;;;4.27;;
67248;SDS011;63247;54.300;18.592;2023-03-14T08:47:59;9.10;;;4.03;;
67248;SDS011;63247;54.300;18.592;2023-03-14T08:50:24;11.43;;;4.10;;
67248;SDS011;63247;54.300;18.592;2023-03-14T08:52:50;8.93;;;4.60;;
67248;SDS011;63247;54.300;18.592;2023-03-14T08:55:15;8.77;;;4.10;;
67248;SDS011;63247;54.300;18.592;2023-03-14T08:57:41;8.10;;;4.82;;
67248;SDS011;63247;54.300;18.592;2023-03-14T09:00:06;9.38;;;4.60;;
67248;SDS011;63247;54.300;18.592;2023-03-14T09:02:39;10.55;;;5.28;;
67248;SDS011;63247;54.300;18.592;2023-03-14T09:05:04;8.73;;;4.70;;
67248;SDS011;63247;54.300;18.592;2023-03-14T09:07:31;9.77;;;4.68;;
67248;SDS011;63247;54.300;18.592;2023-03-14T09:09:56;9.57;;;4.10;;
67248;SDS011;63247;54.300;18.592;2023-03-14T09:12:21;8.23;;;4.40;;
67248;SDS011;63247;54.300;18.592;2023-03-14T09:14:47;10.48;;;4.88;;
67248;SDS011;63247;54.300;18.592;2023-03-14T09:17:12;11.85;;;6.05;;
67248;SDS011;63247;54.300;18.592;2023-03-14T09:19:38;15.63;;;8.03;;
67248;SDS011;63247;54.300;18.592;2023-03-14T09:22:03;10.63;;;5.60;;
67248;SDS011;63247;54.300;18.592;2023-03-14T09:24:29;15.88;;;7.53;;
67248;SDS011;63247;54.300;18.592;2023-03-14T09:26:55;11.57;;;5.90;;
67248;SDS011;63247;54.300;18.592;2023-03-14T09:29:21;13.20;;;6.53;;
67248;SDS011;63247;54.300;18.592;2023-03-14T09:31:57;12.27;;;6.30;;
67248;SDS011;63247;54.300;18.592;2023-03-14T09:34:23;11.67;;;6.70;;
67248;SDS011;63247;54.300;18.592;2023-03-14T09:36:48;14.25;;;6.80;;
67248;SDS011;63247;54.300;18.592;2023-03-14T09:39:14;10.27;;;6.07;;
67248;SDS011;63247;54.300;18.592;2023-03-14T09:41:43;10.85;;;6.05;;
67248;SDS011;63247;54.300;18.592;2023-03-14T09:46:52;12.03;;;6.53;;
67248;SDS011;63247;54.300;18.592;2023-03-14T09:49:27;16.15;;;7.57;;
67248;SDS011;63247;54.300;18.592;2023-03-14T09:51:56;12.30;;;6.30;;
67248;SDS011;63247;54.300;18.592;2023-03-14T09:57:20;14.35;;;7.65;;
67248;SDS011;63247;54.300;18.592;2023-03-14T09:59:48;10.73;;;5.83;;
67248;SDS011;63247;54.300;18.592;2023-03-14T10:02:17;9.93;;;5.07;;
67248;SDS011;63247;54.300;18.592;2023-03-14T10:04:44;14.73;;;6.97;;
67248;SDS011;63247;54.300;18.592;2023-03-14T10:07:14;14.23;;;6.95;;
67248;SDS011;63247;54.300;18.592;2023-03-14T10:09:47;14.02;;;7.00;;
67248;SDS011;63247;54.300;18.592;2023-03-14T10:12:14;14.47;;;7.20;;
67248;SDS011;63247;54.300;18.592;2023-03-14T10:14:45;15.07;;;7.78;;
67248;SDS011;63247;54.300;18.592;2023-03-14T10:17:18;11.45;;;6.38;;
67248;SDS011;63247;54.300;18.592;2023-03-14T10:19:55;9.82;;;5.60;;
67248;SDS011;63247;54.300;18.592;2023-03-14T10:22:24;10.27;;;5.75;;
67248;SDS011;63247;54.300;18.592;2023-03-14T10:24:59;12.53;;;6.93;;
67248;SDS011;63247;54.300;18.592;2023-03-14T10:27:31;16.95;;;7.90;;
67248;SDS011;63247;54.300;18.592;2023-03-14T10:30:06;13.82;;;7.20;;
67248;SDS011;63247;54.300;18.592;2023-03-14T10:32:37;17.10;;;7.72;;
67248;SDS011;63247;54.300;18.592;2023-03-14T10:37:47;13.33;;;6.70;;
67248;SDS011;63247;54.300;18.592;2023-03-14T10:40:37;12.07;;;6.45;;
67248;SDS011;63247;54.300;18.592;2023-03-14T10:43:05;10.95;;;5.85;;
67248;SDS011;63247;54.300;18.592;2023-03-14T10:45:36;9.38;;;5.78;;
67248;SDS011;63247;54.300;18.592;2023-03-14T10:50:38;11.40;;;6.40;;
67248;SDS011;63247;54.300;18.592;2023-03-14T10:53:26;12.15;;;6.53;;
67248;SDS011;63247;54.300;18.592;2023-03-14T10:55:52;12.47;;;6.77;;
67248;SDS011;63247;54.300;18.592;2023-03-14T10:58:22;10.88;;;6.38;;
67248;SDS011;63247;54.300;18.592;2023-03-14T11:00:54;11.30;;;5.60;;
67248;SDS011;63247;54.300;18.592;2023-03-14T11:03:40;11.82;;;6.70;;
67248;SDS011;63247;54.300;18.592;2023-03-14T11:06:14;10.90;;;6.17;;
67248;SDS011;63247;54.300;18.592;2023-03-14T11:11:30;12.23;;;6.80;;
67248;SDS011;63247;54.300;18.592;2023-03-14T11:21:57;10.57;;;5.75;;
67248;SDS011;63247;54.300;18.592;2023-03-14T11:24:37;11.57;;;5.95;;
67248;SDS011;63247;54.300;18.592;2023-03-14T11:27:25;10.80;;;5.63;;
67248;SDS011;63247;54.300;18.592;2023-03-14T11:30:01;10.35;;;5.03;;
67248;SDS011;63247;54.300;18.592;2023-03-14T11:38:17;11.65;;;6.32;;
67248;SDS011;63247;54.300;18.592;2023-03-14T11:40:50;10.82;;;5.43;;
67248;SDS011;63247;54.300;18.592;2023-03-14T11:45:49;11.20;;;6.00;;
67248;SDS011;63247;54.300;18.592;2023-03-14T11:50:52;11.07;;;6.30;;
67248;SDS011;63247;54.300;18.592;2023-03-14T11:53:34;11.48;;;5.80;;
67248;SDS011;63247;54.300;18.592;2023-03-14T11:56:01;8.80;;;4.85;;
67248;SDS011;63247;54.300;18.592;2023-03-14T11:58:29;9.87;;;5.70;;
67248;SDS011;63247;54.300;18.592;2023-03-14T12:01:00;9.63;;;5.35;;
67248;SDS011;63247;54.300;18.592;2023-03-14T12:03:34;10.02;;;5.40;;
67248;SDS011;63247;54.300;18.592;2023-03-14T12:09:04;10.10;;;6.00;;
67248;SDS011;63247;54.300;18.592;2023-03-14T12:11:42;9.73;;;5.93;;
67248;SDS011;63247;54.300;18.592;2023-03-14T12:14:27;12.55;;;5.45;;
67248;SDS011;63247;54.300;18.592;2023-03-14T12:16:59;13.00;;;5.90;;
67248;SDS011;63247;54.300;18.592;2023-03-14T12:19:33;8.90;;;4.90;;
67248;SDS011;63247;54.300;18.592;2023-03-14T12:24:37;11.48;;;5.35;;
67248;SDS011;63247;54.300;18.592;2023-03-14T12:27:04;10.48;;;6.60;;
67248;SDS011;63247;54.300;18.592;2023-03-14T12:29:33;9.18;;;4.93;;
67248;SDS011;63247;54.300;18.592;2023-03-14T12:32:24;6.10;;;3.80;;
67248;SDS011;63247;54.300;18.592;2023-03-14T12:34:50;9.77;;;5.07;;
67248;SDS011;63247;54.300;18.592;2023-03-14T12:37:22;7.22;;;4.20;;
67248;SDS011;63247;54.300;18.592;2023-03-14T12:45:47;9.55;;;4.13;;
67248;SDS011;63247;54.300;18.592;2023-03-14T12:50:28;8.00;;;3.90;;
67248;SDS011;63247;54.300;18.592;2023-03-14T12:53:02;7.65;;;3.30;;
67248;SDS011;63247;54.300;18.592;2023-03-14T13:01:01;7.90;;;3.70;;
67248;SDS011;63247;54.300;18.592;2023-03-14T13:03:39;7.57;;;4.00;;
67248;SDS011;63247;54.300;18.592;2023-03-14T13:06:10;7.82;;;3.45;;
67248;SDS011;63247;54.300;18.592;2023-03-14T13:08:40;7.10;;;3.00;;
67248;SDS011;63247;54.300;18.592;2023-03-14T13:11:19;10.15;;;3.70;;
67248;SDS011;63247;54.300;18.592;2023-03-14T13:14:07;9.10;;;2.80;;
67248;SDS011;63247;54.300;18.592;2023-03-14T13:16:35;8.13;;;2.72;;
67248;SDS011;63247;54.300;18.592;2023-03-14T13:19:09;6.32;;;3.00;;
67248;SDS011;63247;54.300;18.592;2023-03-14T13:21:40;8.50;;;3.50;;
67248;SDS011;63247;54.300;18.592;2023-03-14T13:24:07;11.73;;;3.95;;
67248;SDS011;63247;54.300;18.592;2023-03-14T13:26:47;6.22;;;2.88;;
67248;SDS011;63247;54.300;18.592;2023-03-14T13:29:19;7.25;;;3.30;;
67248;SDS011;63247;54.300;18.592;2023-03-14T13:31:51;8.83;;;3.80;;
67248;SDS011;63247;54.300;18.592;2023-03-14T13:34:33;9.68;;;4.15;;
67248;SDS011;63247;54.300;18.592;2023-03-14T13:36:59;9.25;;;3.80;;
67248;SDS011;63247;54.300;18.592;2023-03-14T13:39:27;9.73;;;3.20;;
67248;SDS011;63247;54.300;18.592;2023-03-14T13:41:54;5.47;;;2.67;;
67248;SDS011;63247;54.300;18.592;2023-03-14T13:44:36;7.40;;;2.70;;
67248;SDS011;63247;54.300;18.592;2023-03-14T13:47:04;8.13;;;2.70;;
67248;SDS011;63247;54.300;18.592;2023-03-14T13:49:34;7.03;;;2.78;;
67248;SDS011;63247;54.300;18.592;2023-03-14T13:52:02;7.72;;;3.00;;
67248;SDS011;63247;54.300;18.592;2023-03-14T13:54:29;7.85;;;2.55;;
67248;SDS011;63247;54.300;18.592;2023-03-14T13:57:00;6.90;;;2.20;;
67248;SDS011;63247;54.300;18.592;2023-03-14T13:59:34;5.20;;;2.15;;
67248;SDS011;63247;54.300;18.592;2023-03-14T14:02:01;7.75;;;2.75;;
67248;SDS011;63247;54.300;18.592;2023-03-14T14:04:38;6.13;;;2.70;;
67248;SDS011;63247;54.300;18.592;2023-03-14T14:07:07;7.93;;;2.47;;
67248;SDS011;63247;54.300;18.592;2023-03-14T14:09:37;7.63;;;2.50;;
67248;SDS011;63247;54.300;18.592;2023-03-14T14:12:10;10.18;;;3.58;;
67248;SDS011;63247;54.300;18.592;2023-03-14T14:17:10;6.27;;;2.73;;
67248;SDS011;63247;54.300;18.592;2023-03-14T14:19:38;5.78;;;2.22;;
67248;SDS011;63247;54.300;18.592;2023-03-14T14:22:05;7.35;;;3.00;;
67248;SDS011;63247;54.300;18.592;2023-03-14T14:24:33;6.65;;;2.80;;
67248;SDS011;63247;54.300;18.592;2023-03-14T14:27:02;6.63;;;3.05;;
67248;SDS011;63247;54.300;18.592;2023-03-14T14:29:37;7.33;;;3.13;;
67248;SDS011;63247;54.300;18.592;2023-03-14T14:34:41;9.17;;;3.90;;
67248;SDS011;63247;54.300;18.592;2023-03-14T14:37:24;9.40;;;4.07;;
67248;SDS011;63247;54.300;18.592;2023-03-14T14:39:53;9.35;;;4.00;;
67248;SDS011;63247;54.300;18.592;2023-03-14T14:42:28;8.93;;;3.78;;
67248;SDS011;63247;54.300;18.592;2023-03-14T14:44:56;8.93;;;4.13;;
67248;SDS011;63247;54.300;18.592;2023-03-14T14:47:25;8.80;;;3.83;;
67248;SDS011;63247;54.300;18.592;2023-03-14T14:49:52;6.72;;;3.30;;
67248;SDS011;63247;54.300;18.592;2023-03-14T14:52:40;8.40;;;3.67;;
67248;SDS011;63247;54.300;18.592;2023-03-14T14:55:18;8.95;;;3.80;;
67248;SDS011;63247;54.300;18.592;2023-03-14T14:57:54;9.75;;;3.60;;
67248;SDS011;63247;54.300;18.592;2023-03-14T15:00:23;7.90;;;3.13;;
67248;SDS011;63247;54.300;18.592;2023-03-14T15:02:53;8.15;;;3.00;;
67248;SDS011;63247;54.300;18.592;2023-03-14T15:05:24;5.50;;;2.55;;
67248;SDS011;63247;54.300;18.592;2023-03-14T15:07:51;9.18;;;3.10;;
67248;SDS011;63247;54.300;18.592;2023-03-14T15:10:21;10.57;;;4.27;;
67248;SDS011;63247;54.300;18.592;2023-03-14T15:12:49;10.60;;;3.60;;
67248;SDS011;63247;54.300;18.592;2023-03-14T15:15:15;9.27;;;3.80;;
67248;SDS011;63247;54.300;18.592;2023-03-14T15:17:41;12.32;;;3.80;;
67248;SDS011;63247;54.300;18.592;2023-03-14T15:20:09;8.47;;;3.83;;
67248;SDS011;63247;54.300;18.592;2023-03-14T15:22:38;9.18;;;3.25;;
67248;SDS011;63247;54.300;18.592;2023-03-14T15:25:07;8.45;;;3.50;;
67248;SDS011;63247;54.300;18.592;2023-03-14T15:27:33;6.78;;;3.00;;
67248;SDS011;63247;54.300;18.592;2023-03-14T15:29:59;6.27;;;2.60;;
67248;SDS011;63247;54.300;18.592;2023-03-14T15:32:26;6.47;;;2.85;;
67248;SDS011;63247;54.300;18.592;2023-03-14T15:34:55;6.28;;;2.42;;
67248;SDS011;63247;54.300;18.592;2023-03-14T15:37:21;9.43;;;2.90;;